EDT,Max TemperatureF,Mean TemperatureF,Min TemperatureF,Max Dew PointF,MeanDew PointF,Min DewpointF,Max Humidity, Mean Humidity, Min Humidity, Max Sea Level PressureIn, Mean Sea Level PressureIn, Min Sea Level PressureIn, Max VisibilityMiles, Mean VisibilityMiles, Min VisibilityMiles, Max Wind SpeedMPH, Mean Wind SpeedMPH, Max Gust SpeedMPH,PrecipitationIn, CloudCover, Events, WindDirDegrees
2013-3-1,52,47,41,35,30,27,70,56,41,30.00,29.96,29.91,10,10,10,15,9,23,0.00,5,,291
2013-3-2,51,43,34,32,29,26,82,62,42,30.00,29.96,29.91,10,10,10,24,11,32,0.00,3,,274
2013-3-3,47,40,32,27,25,21,78,58,38,30.09,30.01,29.97,10,10,10,22,9,26,0.00,4,,286
2013-3-4,60,45,29,41,26,19,72,48,23,30.23,30.15,30.09,10,10,10,15,7,20,0.00,2,,272
2013-3-5,70,54,38,57,43,34,92,60,28,30.15,29.99,29.77,10,10,5,28,10,36,0.04,5,Rain,210
2013-3-6,57,49,40,48,28,20,80,56,32,30.14,29.97,29.82,10,10,10,31,18,43,0.00,1,,295
2013-3-7,61,47,32,38,30,27,82,56,29,30.26,30.20,30.15,10,10,10,14,6,20,0.00,2,,318
2013-3-8,64,50,36,37,31,26,92,59,25,30.30,30.24,30.17,10,10,8,15,6,20,0.00,0,,7
2013-3-9,66,51,35,41,33,29,82,55,28,30.34,30.28,30.24,10,10,7,13,4,16,0.00,1,,84
2013-3-10,70,55,40,50,45,39,93,69,44,30.28,30.23,30.18,10,10,8,18,8,23,0.00,4,,95
2013-3-11,74,63,51,58,52,49,96,73,49,30.18,30.04,29.89,10,10,10,24,12,33,T,6,,135
2013-3-12,70,61,52,63,55,39,93,65,37,30.01,29.89,29.85,10,8,2,22,11,31,0.10,7,Rain,237
2013-3-13,67,55,43,35,28,22,65,43,20,30.17,30.09,30.01,10,10,10,25,11,36,0.00,0,,302
2013-3-14,58,49,39,30,23,20,70,47,24,30.34,30.25,30.17,10,10,10,17,7,23,0.00,0,,328
2013-3-15,72,54,35,45,32,22,77,51,24,30.27,30.18,30.07,10,10,9,17,8,24,0.00,0,,264
2013-3-16,80,65,50,46,40,34,63,41,19,30.09,30.02,29.93,10,10,10,26,13,37,0.00,1,,246
2013-3-17,77,66,54,54,51,48,86,62,38,30.08,30.03,29.97,10,10,10,21,9,28,T,4,Rain,228
2013-3-18,74,66,58,59,57,52,90,76,61,30.08,29.99,29.86,10,8,2,31,6,40,0.29,7,Rain-Thunderstorm,144
2013-3-19,77,65,53,57,50,28,100,62,23,30.01,29.94,29.85,10,9,2,21,9,24,0.03,4,Fog-Rain,286
2013-3-20,68,56,44,40,30,22,76,48,20,30.10,29.98,29.88,10,10,10,15,6,22,0.00,4,,35
2013-3-21,60,50,40,39,23,16,83,50,17,29.96,29.89,29.85,10,10,10,26,11,35,0.00,3,,301
2013-3-22,61,50,39,44,30,21,86,60,33,30.12,30.05,29.97,10,10,10,12,4,14,T,5,Rain,83
2013-3-23,64,55,45,52,48,42,86,75,63,30.06,29.96,29.84,10,9,2,22,8,26,0.20,7,Rain,62
2013-3-24,78,66,54,66,57,51,100,82,64,29.84,29.60,29.49,10,7,1,24,11,32,1.35,7,Rain-Thunderstorm,19
2013-3-25,59,51,42,52,32,18,86,53,19,30.02,29.79,29.63,10,10,10,35,19,44,0.00,2,,293
2013-3-26,53,44,34,27,23,20,69,51,33,30.25,30.11,30.05,10,10,10,26,14,39,0.00,2,,291
2013-3-27,60,46,32,33,27,23,75,50,24,30.31,30.26,30.21,10,10,10,17,6,22,0.00,0,,301
2013-3-28,64,50,35,38,28,20,82,51,19,30.33,30.27,30.21,10,10,10,18,6,22,0.00,0,,334
2013-3-29,67,52,37,45,38,31,100,66,32,30.35,30.28,30.22,10,10,7,15,5,20,0.00,1,Fog,118
2013-3-30,77,62,47,49,43,38,86,55,24,30.24,30.17,30.08,10,10,10,17,9,26,0.00,2,,205
2013-3-31,81,68,54,56,51,44,67,52,36,30.10,30.01,29.91,10,10,9,22,10,31,0.01,4,Rain,216